Mont Saint Michel — FNMT — position and weather

sailwx.info

Track history (hours):
 
Tides and Currents Weather Stations Pressure Air Temp Water Temp Dewpoint Dewpoint Depression Visibility Wind Speed Wind Dir Waves Ship Positions

Mont Saint Michel

Last reported at 2017-Aug-24 07:00 UTC. Time now 2017-Aug-24 06:59 UTC.
Position N 49°18' W 000°15'.

Length 173 m; beam 29 m.

Type: Ship. MMSI: 227023100.

Date/timePositionNaut miles runAvg speedWind from/ knotsBaromVisibWave heightAir tempDewpointWater temp
2017-Aug-24 07:00N 49°18' W 000°15'1 2.3
2017-Aug-24 06:30N 49°17' W 000°15'0 0.0
2017-Aug-24 06:00N 49°17' W 000°15'0 0.0
2017-Aug-24 05:30N 49°17' W 000°15'0 0.0
2017-Aug-24 05:00N 49°17' W 000°15'2 2.5
2017-Aug-24 04:21N 49°19' W 000°15'815.5
2017-Aug-24 03:49N 49°27' W 000°17'515.3
2017-Aug-24 03:30N 49°32' W 000°19'611.6
2017-Aug-24 02:59N 49°38' W 000°21'4712.5
2017-Aug-23 23:13N 50°22' W 000°45'316.0
2017-Aug-23 23:00N 50°25' W 000°48'816.1
2017-Aug-23 22:30N 50°32' W 000°55'815.6
2017-Aug-23 22:00N 50°39' W 000°59'714.7
2017-Aug-23 21:30N 50°45' W 001°05'3 6.6
2017-Aug-23 21:01N 50°49' W 001°06'0 0.0
2017-Aug-23 20:30N 50°49' W 001°06'0 0.0
2017-Aug-23 20:00N 50°49' W 001°06'0 0.0
2017-Aug-23 19:30N 50°49' W 001°06'0 0.0
2017-Aug-23 19:01N 50°49' W 001°06'0 0.0
2017-Aug-23 18:30N 50°49' W 001°06'0 0.2
2017-Aug-23 18:00N 50°49' W 001°06'4 9.0
2017-Aug-23 17:30N 50°44' W 001°04'815.7
2017-Aug-23 17:00N 50°38' W 000°58'918.8
2017-Aug-23 16:30N 50°28' W 000°55'5018.4
2017-Aug-23 13:48N 49°43' W 000°25'618.4
2017-Aug-23 13:30N 49°37' W 000°22'917.9
2017-Aug-23 13:00N 49°29' W 000°17'918.3
2017-Aug-23 12:30N 49°20' W 000°14'3 5.9
2017-Aug-23 12:00N 49°17' W 000°15'0 0.0
2017-Aug-23 11:30N 49°17' W 000°15'0 0.0
2017-Aug-23 11:00N 49°17' W 000°15'0 0.0
2017-Aug-23 10:30N 49°17' W 000°15'0 0.0
2017-Aug-23 10:00N 49°17' W 000°15'0 0.0
2017-Aug-23 09:30N 49°17' W 000°15'0 0.0
2017-Aug-23 09:00N 49°17' W 000°15'0 0.0
2017-Aug-23 08:30N 49°17' W 000°15'0 0.0
2017-Aug-23 08:00N 49°17' W 000°15'0 0.0
2017-Aug-23 07:30N 49°17' W 000°15'0 0.0
2017-Aug-23 07:00N 49°17' W 000°15'0 0.0
2017-Aug-23 06:30N 49°17' W 000°15'0 0.0
2017-Aug-23 06:00N 49°17' W 000°15'0 0.0
2017-Aug-23 05:31N 49°17' W 000°15'0 0.0
2017-Aug-23 05:01N 49°17' W 000°15'3 6.3
2017-Aug-23 04:30N 49°20' W 000°14'815.6
2017-Aug-23 04:00N 49°28' W 000°17'815.9
2017-Aug-23 03:30N 49°35' W 000°23'816.0
2017-Aug-23 03:00N 49°43' W 000°26'815.9
2017-Aug-23 02:30N 49°50' W 000°31'815.7
2017-Aug-23 02:00N 49°57' W 000°36'714.7
2017-Aug-23 01:30N 50°04' W 000°40'714.0
2017-Aug-23 01:00N 50°10' W 000°44'714.4
2017-Aug-23 00:30N 50°18' W 000°45'714.5
2017-Aug-23 00:01N 50°25' W 000°48'714.8
2017-Aug-22 23:30N 50°31' W 000°53'714.6
2017-Aug-22 23:01N 50°38' W 000°58'713.8
2017-Aug-22 22:31N 50°44' W 001°03'510.4
2017-Aug-22 22:00N 50°49' W 001°06'0 0.7
2017-Aug-22 21:30N 50°49' W 001°06'0 0.0
2017-Aug-22 21:01N 50°49' W 001°06'0 0.0
2017-Aug-22 20:30N 50°49' W 001°06'1 1.5
2017-Aug-22 20:00N 50°48' W 001°07'611.4
2017-Aug-22 19:31N 50°44' W 001°02'917.8
2017-Aug-22 19:00N 50°35' W 000°56'1020.0
2017-Aug-22 18:30N 50°25' W 000°53'1020.3
2017-Aug-22 18:00N 50°16' W 000°48'1519.9
2017-Aug-22 17:15N 50°02' W 000°40'619.0
2017-Aug-22 16:58N 49°57' W 000°38'1519.1
2017-Aug-22 16:11N 49°43' W 000°29'418.8
2017-Aug-22 15:59N 49°39' W 000°27'1119.0
2017-Aug-22 15:23N 49°29' W 000°20'719.5
2017-Aug-22 15:00N 49°22' W 000°15'5 9.4
2017-Aug-22 14:30N 49°17' W 000°15'0 0.0
2017-Aug-22 14:00N 49°17' W 000°15'0 0.0
2017-Aug-22 13:30N 49°17' W 000°15'0 0.0
2017-Aug-22 13:00N 49°17' W 000°15'1 2.1
2017-Aug-22 12:30N 49°18' W 000°15'1019.7
2017-Aug-22 12:00N 49°28' W 000°17'1020.5
2017-Aug-22 11:30N 49°38' W 000°22'1121.0
2017-Aug-22 10:59N 49°48' W 000°27'1021.2
2017-Aug-22 10:30N 49°58' W 000°32'1121.5
2017-Aug-22 10:00N 50°08' W 000°38'1020.7
2017-Aug-22 09:31N 50°17' W 000°45'1019.0
2017-Aug-22 09:00N 50°26' W 000°51'1019.3
2017-Aug-22 08:30N 50°35' W 000°56'917.4
2017-Aug-22 08:00N 50°43' W 001°01'612.9
2017-Aug-22 07:30N 50°48' W 001°07'1 1.5
2017-Aug-22 07:01N 50°49' W 001°06'0 0.0
2017-Aug-22 06:31N 50°49' W 001°06'0 0.0
2017-Aug-22 06:01N 50°49' W 001°06'1 1.7
2017-Aug-22 05:31N 50°48' W 001°07'714.1
2017-Aug-22 05:01N 50°43' W 000°60'713.8
2017-Aug-22 04:30N 50°36' W 000°58'611.5
2017-Aug-22 04:00N 50°31' W 000°55'611.3
2017-Aug-22 03:30N 50°25' W 000°52'611.1
2017-Aug-22 02:58N 50°20' W 000°49'711.4
2017-Aug-22 02:19N 50°13' W 000°45'411.7
2017-Aug-22 01:59N 50°09' W 000°43'611.8
2017-Aug-22 01:31N 50°04' W 000°40'1012.3
2017-Aug-22 00:41N 49°54' W 000°34'612.4
2017-Aug-22 00:12N 49°49' W 000°31'312.2
2017-Aug-21 23:57N 49°46' W 000°29'512.3
2017-Aug-21 23:30N 49°41' W 000°25'612.0
2017-Aug-21 23:00N 49°36' W 000°21'711.2
2017-Aug-21 22:24N 49°29' W 000°18'411.2
2017-Aug-21 22:00N 49°25' W 000°17'510.7
2017-Aug-21 21:30N 49°20' W 000°14'2 4.9
2017-Aug-21 21:00N 49°17' W 000°15'0 0.0
2017-Aug-21 20:30N 49°17' W 000°15'0 0.0
2017-Aug-21 20:00N 49°17' W 000°15'0 0.0
2017-Aug-21 19:30N 49°17' W 000°15'3 6.1
2017-Aug-21 19:01N 49°20' W 000°14'1019.8
2017-Aug-21 18:30N 49°30' W 000°17'918.1
2017-Aug-21 18:00N 49°39' W 000°23'1118.6
2017-Aug-21 17:25N 49°48' W 000°31'819.6
2017-Aug-21 17:00N 49°56' W 000°35'1019.1
2017-Aug-21 16:30N 50°05' W 000°40'919.0
2017-Aug-21 16:00N 50°14' W 000°45'919.0
2017-Aug-21 15:31N 50°23' W 000°49'1019.1
2017-Aug-21 15:01N 50°32' W 000°54'1019.3
2017-Aug-21 14:30N 50°41' W 000°58'816.7
2017-Aug-21 14:00N 50°47' W 001°07'1 2.7
2017-Aug-21 13:30N 50°49' W 001°06'0 0.0
2017-Aug-21 13:00N 50°49' W 001°06'0 0.0
2017-Aug-21 12:30N 50°49' W 001°06'0 0.2
2017-Aug-21 11:58N 50°49' W 001°06'4 9.0
2017-Aug-21 11:31N 50°45' W 001°05'1019.4
2017-Aug-21 11:01N 50°36' W 000°58'1020.2
2017-Aug-21 10:30N 50°26' W 000°55'3719.7
2017-Aug-21 08:37N 49°52' W 000°32'219.6
2017-Aug-21 08:30N 49°50' W 000°30'1019.9
2017-Aug-21 07:59N 49°40' W 000°25'1020.2
2017-Aug-21 07:29N 49°31' W 000°19'1020.0
2017-Aug-21 07:00N 49°22' W 000°15'4 8.4
2017-Aug-21 06:30N 49°17' W 000°15'0 0.0
2017-Aug-21 06:00N 49°17' W 000°15'0 0.0
2017-Aug-21 05:30N 49°17' W 000°15'0 0.0
2017-Aug-21 05:00N 49°17' W 000°15'0 0.2
2017-Aug-21 04:30N 49°17' W 000°15'814.9
2017-Aug-21 03:57N 49°26' W 000°16'919.7
2017-Aug-21 03:29N 49°34' W 000°20'917.9
2017-Aug-21 03:00N 49°42' W 000°25'1514.3
2017-Aug-21 01:57N 49°56' W 000°34'2613.7
2017-Aug-21 00:05N 50°20' W 000°48'114.2
2017-Aug-20 23:59N 50°22' W 000°49'714.3
2017-Aug-20 23:31N 50°28' W 000°53'713.9
2017-Aug-20 23:01N 50°34' W 000°57'714.4
2017-Aug-20 22:30N 50°41' W 001°01'714.6
2017-Aug-20 22:01N 50°47' W 001°07'1 2.7
2017-Aug-20 21:29N 50°49' W 001°06'0 0.0
2017-Aug-20 20:59N 50°49' W 001°06'0 0.0
2017-Aug-20 20:31N 50°49' W 001°06'0 0.2
2017-Aug-20 20:01N 50°49' W 001°06'510.1
2017-Aug-20 19:31N 50°44' W 001°03'1019.3
2017-Aug-20 19:01N 50°35' W 000°56'1019.9
2017-Aug-20 18:30N 50°26' W 000°51'5319.1
2017-Aug-20 15:43N 49°36' W 000°24'519.4
2017-Aug-20 15:30N 49°31' W 000°22'1019.7
2017-Aug-20 15:00N 49°23' W 000°16'510.7
2017-Aug-20 14:30N 49°17' W 000°15'0 0.0
2017-Aug-20 14:00N 49°17' W 000°15'0 0.0
2017-Aug-20 13:30N 49°17' W 000°15'0 0.0
2017-Aug-20 13:00N 49°17' W 000°15'0 0.1
2017-Aug-20 12:30N 49°17' W 000°15'917.1
2017-Aug-20 11:58N 49°26' W 000°16'919.2
2017-Aug-20 11:30N 49°35' W 000°22'4919.8
2017-Aug-20 09:01N 50°21' W 000°49'1121.2
2017-Aug-20 08:31N 50°31' W 000°54'1020.7
2017-Aug-20 08:01N 50°40' W 001°00'816.9
2017-Aug-20 07:30N 50°48' W 001°07'1 2.3
2017-Aug-20 07:00N 50°49' W 001°06'0 0.0
2017-Aug-20 06:30N 50°49' W 001°06'0 0.0
2017-Aug-20 06:00N 50°49' W 001°06'1 1.8
2017-Aug-20 05:30N 50°48' W 001°07'713.8
2017-Aug-20 05:00N 50°43' W 000°60'714.5
2017-Aug-20 04:31N 50°36' W 000°57'612.7
2017-Aug-20 04:01N 50°30' W 000°53'510.7
2017-Aug-20 03:30N 50°25' W 000°50'4911.5
2017-Aug-19 23:16N 49°40' W 000°24'311.7
2017-Aug-19 22:59N 49°36' W 000°22'611.1
2017-Aug-19 22:26N 49°31' W 000°19'410.5
2017-Aug-19 22:01N 49°26' W 000°17'510.5
2017-Aug-19 21:30N 49°21' W 000°15'4 7.9
2017-Aug-19 21:00N 49°17' W 000°15'0 0.0
2017-Aug-19 20:30N 49°17' W 000°15'0 0.0
2017-Aug-19 20:00N 49°17' W 000°15'0 0.0
2017-Aug-19 19:30N 49°17' W 000°15'2 4.6
2017-Aug-19 19:00N 49°20' W 000°14'1019.9
2017-Aug-19 18:30N 49°29' W 000°19'5520.3
2017-Aug-19 15:46N 50°21' W 000°49'519.2
2017-Aug-19 15:30N 50°26' W 000°52'1019.6
2017-Aug-19 15:00N 50°35' W 000°57'1514.6
2017-Aug-19 14:00N 50°49' W 001°06'0 0.2
2017-Aug-19 13:30N 50°49' W 001°06'0 0.0
2017-Aug-19 13:00N 50°49' W 001°06'0 0.0
2017-Aug-19 12:31N 50°49' W 001°06'0 0.2
2017-Aug-19 12:00N 50°49' W 001°06'611.8
2017-Aug-19 11:31N 50°43' W 001°03'1019.2
2017-Aug-19 11:00N 50°35' W 000°56'1020.5
2017-Aug-19 10:31N 50°25' W 000°50'4220.1
2017-Aug-19 08:24N 49°46' W 000°26'718.2
2017-Aug-19 08:00N 49°39' W 000°23'1017.9
2017-Aug-19 07:25N 49°29' W 000°18'718.1
2017-Aug-19 07:01N 49°22' W 000°15'4 8.5
2017-Aug-19 06:30N 49°17' W 000°15'0 0.0
2017-Aug-19 06:00N 49°17' W 000°15'0 0.0
2017-Aug-19 05:30N 49°17' W 000°15'0 0.0
2017-Aug-19 05:00N 49°17' W 000°15'0 0.3
2017-Aug-19 04:30N 49°17' W 000°15'1215.9
2017-Aug-19 03:46N 49°29' W 000°16'415.7
2017-Aug-19 03:30N 49°33' W 000°19'5314.8
2017-Aug-18 23:54N 50°22' W 000°50'615.1
2017-Aug-18 23:30N 50°28' W 000°53'714.7
2017-Aug-18 23:01N 50°35' W 000°56'815.8
2017-Aug-18 22:30N 50°42' W 001°01'815.0
2017-Aug-18 22:00N 50°48' W 001°07'1 1.4
2017-Aug-18 21:30N 50°49' W 001°06'0 0.0
2017-Aug-18 21:00N 50°49' W 001°06'0 0.0
2017-Aug-18 20:30N 50°49' W 001°06'0 0.2
2017-Aug-18 20:00N 50°49' W 001°06'612.4
2017-Aug-18 19:31N 50°43' W 001°02'917.9
2017-Aug-18 19:00N 50°35' W 000°56'918.4
2017-Aug-18 18:30N 50°27' W 000°48'4119.1
2017-Aug-18 16:22N 49°48' W 000°29'919.0
2017-Aug-18 15:54N 49°40' W 000°25'819.1
2017-Aug-18 15:29N 49°32' W 000°20'919.0
2017-Aug-18 15:00N 49°24' W 000°16'612.8
2017-Aug-18 14:30N 49°17' W 000°15'0 0.0
2017-Aug-18 13:30N 49°17' W 000°15'0 0.0
2017-Aug-18 13:00N 49°17' W 000°15'2 3.9
2017-Aug-18 12:29N 49°19' W 000°14'816.5
2017-Aug-18 12:00N 49°27' W 000°16'1019.7
2017-Aug-18 11:30N 49°36' W 000°22'4620.0
2017-Aug-18 09:10N 50°20' W 000°48'420.5
2017-Aug-18 08:59N 50°24' W 000°50'1020.2
2017-Aug-18 08:31N 50°33' W 000°55'1019.7
2017-Aug-18 08:01N 50°42' W 001°01'714.9
2017-Aug-18 07:30N 50°48' W 001°07'1 1.8
2017-Aug-18 07:00N 50°49' W 001°06'0 0.0
2017-Aug-18 06:30N 50°49' W 001°06'0 0.0
2017-Aug-18 06:00N 50°49' W 001°06'0 0.1
2017-Aug-18 05:30N 50°49' W 001°06'510.5
2017-Aug-18 05:01N 50°44' W 001°03'917.0
2017-Aug-18 04:30N 50°37' W 000°55'510.6
2017-Aug-18 04:00N 50°32' W 000°53'510.5
2017-Aug-18 03:30N 50°27' W 000°51'610.9
2017-Aug-18 03:00N 50°21' W 000°48'4211.3
2017-Aug-17 23:18N 49°42' W 000°26'311.8
2017-Aug-17 23:00N 49°39' W 000°24'711.4
2017-Aug-17 22:22N 49°32' W 000°20'411.4
2017-Aug-17 22:00N 49°28' W 000°18'511.0
2017-Aug-17 21:30N 49°23' W 000°16'611.1
2017-Aug-17 21:00N 49°18' W 000°15'0 0.5
2017-Aug-17 20:29N 49°17' W 000°15'0 0.0
2017-Aug-17 19:59N 49°17' W 000°15'0 0.0
2017-Aug-17 19:29N 49°17' W 000°15'2 3.5
2017-Aug-17 19:00N 49°19' W 000°15'1019.8
2017-Aug-17 18:29N 49°29' W 000°18'2719.0
2017-Aug-17 17:04N 49°54' W 000°33'118.9
2017-Aug-17 17:00N 49°55' W 000°34'1518.7
2017-Aug-17 16:12N 50°09' W 000°41'818.6
2017-Aug-17 15:48N 50°17' W 000°46'618.7
2017-Aug-17 15:28N 50°22' W 000°49'818.6
2017-Aug-17 15:01N 50°30' W 000°53'918.9
2017-Aug-17 14:30N 50°39' W 000°58'917.0
2017-Aug-17 14:00N 50°46' W 001°06'2 4.4
2017-Aug-17 13:28N 50°49' W 001°06'0 0.0
2017-Aug-17 12:58N 50°49' W 001°06'0 0.0
2017-Aug-17 12:28N 50°49' W 001°06'0 0.2
2017-Aug-17 12:00N 50°49' W 001°06'510.5
2017-Aug-17 11:30N 50°44' W 001°03'917.2
2017-Aug-17 11:00N 50°36' W 000°57'1020.2
2017-Aug-17 10:30N 50°27' W 000°51'3620.0
2017-Aug-17 08:42N 49°53' W 000°31'519.2
2017-Aug-17 08:26N 49°48' W 000°28'819.4
2017-Aug-17 08:00N 49°40' W 000°23'1119.2
2017-Aug-17 07:27N 49°30' W 000°19'819.0
2017-Aug-17 07:00N 49°22' W 000°15'5 9.0
2017-Aug-17 06:29N 49°17' W 000°15'0 0.0
2017-Aug-17 05:59N 49°17' W 000°15'0 0.0
2017-Aug-17 05:29N 49°17' W 000°15'0 0.0
2017-Aug-17 04:59N 49°17' W 000°15'0 0.2
2017-Aug-17 04:31N 49°17' W 000°15'714.7
2017-Aug-17 04:00N 49°25' W 000°16'3412.3
2017-Aug-17 01:15N 49°56' W 000°35'411.9
2017-Aug-17 00:53N 50°00' W 000°38'1411.7
2017-Aug-16 23:40N 50°13' W 000°46'714.5
2017-Aug-16 23:11N 50°20' W 000°50'315.8
2017-Aug-16 23:00N 50°22' W 000°52'815.8
2017-Aug-16 22:30N 50°30' W 000°54'815.6
2017-Aug-16 22:00N 50°38' W 000°58'917.1
2017-Aug-16 21:30N 50°45' W 001°05'4 7.8
2017-Aug-16 21:00N 50°49' W 001°06'0 0.0
2017-Aug-16 20:30N 50°49' W 001°06'0 0.0
2017-Aug-16 20:00N 50°49' W 001°06'0 0.0
2017-Aug-16 19:30N 50°49' W 001°06'0 0.0
2017-Aug-16 19:01N 50°49' W 001°06'0 0.0
2017-Aug-16 18:31N 50°49' W 001°06'0 0.0
2017-Aug-16 18:00N 50°49' W 001°06'2 5.0
2017-Aug-16 17:31N 50°46' W 001°06'918.7
2017-Aug-16 17:00N 50°38' W 000°59'918.2
2017-Aug-16 16:30N 50°29' W 000°54'917.9
2017-Aug-16 16:00N 50°21' W 000°49'917.8
2017-Aug-16 15:30N 50°13' W 000°44'917.9
2017-Aug-16 15:00N 50°04' W 000°39'917.8
2017-Aug-16 14:30N 49°56' W 000°34'917.8
2017-Aug-16 14:00N 49°48' W 000°29'917.7
2017-Aug-16 13:30N 49°39' W 000°24'917.7
2017-Aug-16 13:00N 49°31' W 000°19'917.7
2017-Aug-16 12:30N 49°23' W 000°15'510.6
2017-Aug-16 12:00N 49°17' W 000°15'0 0.0
2017-Aug-16 11:30N 49°17' W 000°15'0 0.0
2017-Aug-16 11:00N 49°17' W 000°15'0 0.0
2017-Aug-16 10:30N 49°17' W 000°15'0 0.0
2017-Aug-16 10:01N 49°17' W 000°15'0 0.0
2017-Aug-16 09:31N 49°17' W 000°15'0 0.0
2017-Aug-16 09:01N 49°17' W 000°15'0 0.0
2017-Aug-16 08:30N 49°17' W 000°15'0 0.0
2017-Aug-16 08:01N 49°17' W 000°15'0 0.0
2017-Aug-16 07:30N 49°17' W 000°15'0 0.0
2017-Aug-16 07:01N 49°17' W 000°15'0 0.0
2017-Aug-16 06:30N 49°17' W 000°15'0 0.0
2017-Aug-16 06:00N 49°17' W 000°15'0 0.0
2017-Aug-16 05:31N 49°17' W 000°15'2 4.8
2017-Aug-16 05:00N 49°20' W 000°14'713.7
2017-Aug-16 04:30N 49°26' W 000°17'611.8
2017-Aug-16 03:59N 49°32' W 000°20'611.8
2017-Aug-16 03:29N 49°38' W 000°24'1712.5
2017-Aug-16 02:06N 49°53' W 000°35'115.3
2017-Aug-16 02:01N 49°55' W 000°36'815.2
2017-Aug-16 01:31N 50°02' W 000°41'815.3
2017-Aug-16 01:00N 50°09' W 000°46'714.7
2017-Aug-16 00:31N 50°15' W 000°49'714.4
2017-Aug-16 00:00N 50°23' W 000°51'714.7
2017-Aug-15 23:30N 50°30' W 000°55'714.4
2017-Aug-15 23:00N 50°37' W 000°57'714.1
2017-Aug-15 22:30N 50°43' W 001°01'612.4
2017-Aug-15 22:01N 50°48' W 001°07'1 1.7
2017-Aug-15 21:31N 50°49' W 001°06'0 0.0
2017-Aug-15 21:01N 50°49' W 001°06'0 0.0
2017-Aug-15 20:30N 50°49' W 001°06'0 0.7
2017-Aug-15 20:01N 50°49' W 001°06'510.1
2017-Aug-15 19:30N 50°44' W 001°03'918.1
2017-Aug-15 19:00N 50°35' W 000°58'918.9
2017-Aug-15 18:30N 50°26' W 000°54'918.4
2017-Aug-15 18:00N 50°18' W 000°49'918.8
2017-Aug-15 17:30N 50°09' W 000°43'918.9
2017-Aug-15 17:00N 50°00' W 000°38'2119.0
2017-Aug-15 15:54N 49°41' W 000°26'818.9
2017-Aug-15 15:30N 49°34' W 000°22'918.6
2017-Aug-15 15:00N 49°25' W 000°16'815.5
2017-Aug-15 14:30N 49°18' W 000°15'0 0.6
2017-Aug-15 14:00N 49°17' W 000°15'0 0.0
2017-Aug-15 13:30N 49°17' W 000°15'0 0.0
2017-Aug-15 13:00N 49°17' W 000°15'0 0.3
2017-Aug-15 12:30N 49°17' W 000°15'917.1
2017-Aug-15 12:00N 49°26' W 000°19'1018.8
2017-Aug-15 11:28N 49°34' W 000°27'2718.9
2017-Aug-15 10:03N 49°59' W 000°43'419.0
2017-Aug-15 09:49N 50°03' W 000°45'1119.1
2017-Aug-15 09:13N 50°14' W 000°51'419.2
2017-Aug-15 09:00N 50°18' W 000°53'1020.5
2017-Aug-15 08:30N 50°28' W 000°56'1021.0
2017-Aug-15 08:01N 50°38' W 000°59'918.1
2017-Aug-15 07:30N 50°46' W 001°06'2 4.9
2017-Aug-15 07:00N 50°49' W 001°06'0 0.0
2017-Aug-15 06:30N 50°49' W 001°06'0 0.0
2017-Aug-15 06:00N 50°49' W 001°06'0 0.1
2017-Aug-15 05:30N 50°49' W 001°06'3 6.6
2017-Aug-15 05:01N 50°45' W 001°05'714.7
2017-Aug-15 04:31N 50°39' W 000°58'714.5
2017-Aug-15 04:01N 50°33' W 000°55'714.6
2017-Aug-15 03:31N 50°26' W 000°50'714.4
2017-Aug-15 03:01N 50°19' W 000°45'815.3
2017-Aug-15 02:29N 50°12' W 000°41'815.6
2017-Aug-15 02:00N 50°05' W 000°38'612.5
2017-Aug-15 01:30N 49°59' W 000°34'510.8
2017-Aug-15 01:00N 49°54' W 000°32'510.7
2017-Aug-15 00:30N 49°49' W 000°29'510.7
2017-Aug-15 00:00N 49°44' W 000°27'611.0
2017-Aug-14 23:30N 49°38' W 000°25'610.9
2017-Aug-14 22:59N 49°33' W 000°22'511.2
2017-Aug-14 22:30N 49°28' W 000°19'611.3
2017-Aug-14 22:00N 49°23' W 000°16'510.2
2017-Aug-14 21:30N 49°18' W 000°15'0 0.5
2017-Aug-14 21:00N 49°17' W 000°15'0 0.0
2017-Aug-14 20:30N 49°17' W 000°15'0 0.0
2017-Aug-14 20:00N 49°17' W 000°15'0 0.0
2017-Aug-14 19:30N 49°17' W 000°15'3 6.2
2017-Aug-14 18:59N 49°21' W 000°15'1018.4
2017-Aug-14 18:28N 49°30' W 000°19'918.4
2017-Aug-14 18:00N 49°38' W 000°21'918.5
2017-Aug-14 17:30N 49°47' W 000°24'918.4
2017-Aug-14 17:01N 49°56' W 000°29'918.4
2017-Aug-14 16:30N 50°04' W 000°34'1019.0
2017-Aug-14 16:00N 50°13' W 000°40'1020.5
2017-Aug-14 15:30N 50°22' W 000°48'1020.7
2017-Aug-14 15:00N 50°31' W 000°55'1019.7
2017-Aug-14 14:30N 50°40' W 000°60'816.6
2017-Aug-14 14:00N 50°48' W 001°07'1 2.4
2017-Aug-14 13:30N 50°49' W 001°06'0 0.0
2017-Aug-14 13:00N 50°49' W 001°06'0 0.0
2017-Aug-14 12:30N 50°49' W 001°06'0 0.3
2017-Aug-14 12:00N 50°49' W 001°06'4 8.7
2017-Aug-14 11:30N 50°44' W 001°04'816.3
2017-Aug-14 11:00N 50°37' W 000°58'918.2
2017-Aug-14 10:30N 50°28' W 000°55'919.0
2017-Aug-14 10:01N 50°19' W 000°52'1019.3
2017-Aug-14 09:30N 50°10' W 000°48'1019.5
2017-Aug-14 09:00N 50°01' W 000°43'1220.5
2017-Aug-14 08:25N 49°49' W 000°36'921.6
2017-Aug-14 07:59N 49°41' W 000°30'1221.4
2017-Aug-14 07:26N 49°30' W 000°22'921.5
2017-Aug-14 07:00N 49°22' W 000°16'  
Track history (hours):
 
Tides and Currents Weather Stations Pressure Air Temp Water Temp Dewpoint Dewpoint Depression Visibility Wind Speed Wind Dir Waves Ship Positions

Mont Saint Michel

Last reported at 2017-Aug-24 07:00 UTC. Time now 2017-Aug-24 06:59 UTC.
Position N 49°18' W 000°15'.

Length 173 m; beam 29 m.

Type: Ship. MMSI: 227023100.

Date/timePositionNaut miles runAvg speedWind from/ knotsBaromVisibWave heightAir tempDewpointWater temp
2017-Aug-24 07:00N 49°18' W 000°15'1 2.3
2017-Aug-24 06:30N 49°17' W 000°15'0 0.0
2017-Aug-24 06:00N 49°17' W 000°15'0 0.0
2017-Aug-24 05:30N 49°17' W 000°15'0 0.0
2017-Aug-24 05:00N 49°17' W 000°15'2 2.5
2017-Aug-24 04:21N 49°19' W 000°15'815.5
2017-Aug-24 03:49N 49°27' W 000°17'515.3
2017-Aug-24 03:30N 49°32' W 000°19'611.6
2017-Aug-24 02:59N 49°38' W 000°21'4712.5
2017-Aug-23 23:13N 50°22' W 000°45'316.0
2017-Aug-23 23:00N 50°25' W 000°48'816.1
2017-Aug-23 22:30N 50°32' W 000°55'815.6
2017-Aug-23 22:00N 50°39' W 000°59'714.7
2017-Aug-23 21:30N 50°45' W 001°05'3 6.6
2017-Aug-23 21:01N 50°49' W 001°06'0 0.0
2017-Aug-23 20:30N 50°49' W 001°06'0 0.0
2017-Aug-23 20:00N 50°49' W 001°06'0 0.0
2017-Aug-23 19:30N 50°49' W 001°06'0 0.0
2017-Aug-23 19:01N 50°49' W 001°06'0 0.0
2017-Aug-23 18:30N 50°49' W 001°06'0 0.2
2017-Aug-23 18:00N 50°49' W 001°06'4 9.0
2017-Aug-23 17:30N 50°44' W 001°04'815.7
2017-Aug-23 17:00N 50°38' W 000°58'918.8
2017-Aug-23 16:30N 50°28' W 000°55'5018.4
2017-Aug-23 13:48N 49°43' W 000°25'618.4
2017-Aug-23 13:30N 49°37' W 000°22'917.9
2017-Aug-23 13:00N 49°29' W 000°17'918.3
2017-Aug-23 12:30N 49°20' W 000°14'3 5.9
2017-Aug-23 12:00N 49°17' W 000°15'0 0.0
2017-Aug-23 11:30N 49°17' W 000°15'0 0.0
2017-Aug-23 11:00N 49°17' W 000°15'0 0.0
2017-Aug-23 10:30N 49°17' W 000°15'0 0.0
2017-Aug-23 10:00N 49°17' W 000°15'0 0.0
2017-Aug-23 09:30N 49°17' W 000°15'0 0.0
2017-Aug-23 09:00N 49°17' W 000°15'0 0.0
2017-Aug-23 08:30N 49°17' W 000°15'0 0.0
2017-Aug-23 08:00N 49°17' W 000°15'0 0.0
2017-Aug-23 07:30N 49°17' W 000°15'0 0.0
2017-Aug-23 07:00N 49°17' W 000°15'0 0.0
2017-Aug-23 06:30N 49°17' W 000°15'0 0.0
2017-Aug-23 06:00N 49°17' W 000°15'0 0.0
2017-Aug-23 05:31N 49°17' W 000°15'0 0.0
2017-Aug-23 05:01N 49°17' W 000°15'3 6.3
2017-Aug-23 04:30N 49°20' W 000°14'815.6
2017-Aug-23 04:00N 49°28' W 000°17'815.9
2017-Aug-23 03:30N 49°35' W 000°23'816.0
2017-Aug-23 03:00N 49°43' W 000°26'815.9
2017-Aug-23 02:30N 49°50' W 000°31'815.7
2017-Aug-23 02:00N 49°57' W 000°36'714.7
2017-Aug-23 01:30N 50°04' W 000°40'714.0
2017-Aug-23 01:00N 50°10' W 000°44'714.4
2017-Aug-23 00:30N 50°18' W 000°45'714.5
2017-Aug-23 00:01N 50°25' W 000°48'714.8
2017-Aug-22 23:30N 50°31' W 000°53'714.6
2017-Aug-22 23:01N 50°38' W 000°58'713.8
2017-Aug-22 22:31N 50°44' W 001°03'510.4
2017-Aug-22 22:00N 50°49' W 001°06'0 0.7
2017-Aug-22 21:30N 50°49' W 001°06'0 0.0
2017-Aug-22 21:01N 50°49' W 001°06'0 0.0
2017-Aug-22 20:30N 50°49' W 001°06'1 1.5
2017-Aug-22 20:00N 50°48' W 001°07'611.4
2017-Aug-22 19:31N 50°44' W 001°02'917.8
2017-Aug-22 19:00N 50°35' W 000°56'1020.0
2017-Aug-22 18:30N 50°25' W 000°53'1020.3
2017-Aug-22 18:00N 50°16' W 000°48'1519.9
2017-Aug-22 17:15N 50°02' W 000°40'619.0
2017-Aug-22 16:58N 49°57' W 000°38'1519.1
2017-Aug-22 16:11N 49°43' W 000°29'418.8
2017-Aug-22 15:59N 49°39' W 000°27'1119.0
2017-Aug-22 15:23N 49°29' W 000°20'719.5
2017-Aug-22 15:00N 49°22' W 000°15'5 9.4
2017-Aug-22 14:30N 49°17' W 000°15'0 0.0
2017-Aug-22 14:00N 49°17' W 000°15'0 0.0
2017-Aug-22 13:30N 49°17' W 000°15'0 0.0
2017-Aug-22 13:00N 49°17' W 000°15'1 2.1
2017-Aug-22 12:30N 49°18' W 000°15'1019.7
2017-Aug-22 12:00N 49°28' W 000°17'1020.5
2017-Aug-22 11:30N 49°38' W 000°22'1121.0
2017-Aug-22 10:59N 49°48' W 000°27'1021.2
2017-Aug-22 10:30N 49°58' W 000°32'1121.5
2017-Aug-22 10:00N 50°08' W 000°38'1020.7
2017-Aug-22 09:31N 50°17' W 000°45'1019.0
2017-Aug-22 09:00N 50°26' W 000°51'1019.3
2017-Aug-22 08:30N 50°35' W 000°56'917.4
2017-Aug-22 08:00N 50°43' W 001°01'612.9
2017-Aug-22 07:30N 50°48' W 001°07'1 1.5
2017-Aug-22 07:01N 50°49' W 001°06'0 0.0
2017-Aug-22 06:31N 50°49' W 001°06'0 0.0
2017-Aug-22 06:01N 50°49' W 001°06'1 1.7
2017-Aug-22 05:31N 50°48' W 001°07'714.1
2017-Aug-22 05:01N 50°43' W 000°60'713.8
2017-Aug-22 04:30N 50°36' W 000°58'611.5
2017-Aug-22 04:00N 50°31' W 000°55'611.3
2017-Aug-22 03:30N 50°25' W 000°52'611.1
2017-Aug-22 02:58N 50°20' W 000°49'711.4
2017-Aug-22 02:19N 50°13' W 000°45'411.7
2017-Aug-22 01:59N 50°09' W 000°43'611.8
2017-Aug-22 01:31N 50°04' W 000°40'1012.3
2017-Aug-22 00:41N 49°54' W 000°34'612.4
2017-Aug-22 00:12N 49°49' W 000°31'312.2
2017-Aug-21 23:57N 49°46' W 000°29'512.3
2017-Aug-21 23:30N 49°41' W 000°25'612.0
2017-Aug-21 23:00N 49°36' W 000°21'711.2
2017-Aug-21 22:24N 49°29' W 000°18'411.2
2017-Aug-21 22:00N 49°25' W 000°17'510.7
2017-Aug-21 21:30N 49°20' W 000°14'2 4.9
2017-Aug-21 21:00N 49°17' W 000°15'0 0.0
2017-Aug-21 20:30N 49°17' W 000°15'0 0.0
2017-Aug-21 20:00N 49°17' W 000°15'0 0.0
2017-Aug-21 19:30N 49°17' W 000°15'3 6.1
2017-Aug-21 19:01N 49°20' W 000°14'1019.8
2017-Aug-21 18:30N 49°30' W 000°17'918.1
2017-Aug-21 18:00N 49°39' W 000°23'1118.6
2017-Aug-21 17:25N 49°48' W 000°31'819.6
2017-Aug-21 17:00N 49°56' W 000°35'1019.1
2017-Aug-21 16:30N 50°05' W 000°40'919.0
2017-Aug-21 16:00N 50°14' W 000°45'919.0
2017-Aug-21 15:31N 50°23' W 000°49'1019.1
2017-Aug-21 15:01N 50°32' W 000°54'1019.3
2017-Aug-21 14:30N 50°41' W 000°58'816.7
2017-Aug-21 14:00N 50°47' W 001°07'1 2.7
2017-Aug-21 13:30N 50°49' W 001°06'0 0.0
2017-Aug-21 13:00N 50°49' W 001°06'0 0.0
2017-Aug-21 12:30N 50°49' W 001°06'0 0.2
2017-Aug-21 11:58N 50°49' W 001°06'4 9.0
2017-Aug-21 11:31N 50°45' W 001°05'1019.4
2017-Aug-21 11:01N 50°36' W 000°58'1020.2
2017-Aug-21 10:30N 50°26' W 000°55'3719.7
2017-Aug-21 08:37N 49°52' W 000°32'219.6
2017-Aug-21 08:30N 49°50' W 000°30'1019.9
2017-Aug-21 07:59N 49°40' W 000°25'1020.2
2017-Aug-21 07:29N 49°31' W 000°19'1020.0
2017-Aug-21 07:00N 49°22' W 000°15'4 8.4
2017-Aug-21 06:30N 49°17' W 000°15'0 0.0
2017-Aug-21 06:00N 49°17' W 000°15'0 0.0
2017-Aug-21 05:30N 49°17' W 000°15'0 0.0
2017-Aug-21 05:00N 49°17' W 000°15'0 0.2
2017-Aug-21 04:30N 49°17' W 000°15'814.9
2017-Aug-21 03:57N 49°26' W 000°16'919.7
2017-Aug-21 03:29N 49°34' W 000°20'917.9
2017-Aug-21 03:00N 49°42' W 000°25'1514.3
2017-Aug-21 01:57N 49°56' W 000°34'2613.7
2017-Aug-21 00:05N 50°20' W 000°48'114.2
2017-Aug-20 23:59N 50°22' W 000°49'714.3
2017-Aug-20 23:31N 50°28' W 000°53'713.9
2017-Aug-20 23:01N 50°34' W 000°57'714.4
2017-Aug-20 22:30N 50°41' W 001°01'714.6
2017-Aug-20 22:01N 50°47' W 001°07'1 2.7
2017-Aug-20 21:29N 50°49' W 001°06'0 0.0
2017-Aug-20 20:59N 50°49' W 001°06'0 0.0
2017-Aug-20 20:31N 50°49' W 001°06'0 0.2
2017-Aug-20 20:01N 50°49' W 001°06'510.1
2017-Aug-20 19:31N 50°44' W 001°03'1019.3
2017-Aug-20 19:01N 50°35' W 000°56'1019.9
2017-Aug-20 18:30N 50°26' W 000°51'5319.1
2017-Aug-20 15:43N 49°36' W 000°24'519.4
2017-Aug-20 15:30N 49°31' W 000°22'1019.7
2017-Aug-20 15:00N 49°23' W 000°16'510.7
2017-Aug-20 14:30N 49°17' W 000°15'0 0.0
2017-Aug-20 14:00N 49°17' W 000°15'0 0.0
2017-Aug-20 13:30N 49°17' W 000°15'0 0.0
2017-Aug-20 13:00N 49°17' W 000°15'0 0.1
2017-Aug-20 12:30N 49°17' W 000°15'917.1
2017-Aug-20 11:58N 49°26' W 000°16'919.2
2017-Aug-20 11:30N 49°35' W 000°22'4919.8
2017-Aug-20 09:01N 50°21' W 000°49'1121.2
2017-Aug-20 08:31N 50°31' W 000°54'1020.7
2017-Aug-20 08:01N 50°40' W 001°00'816.9
2017-Aug-20 07:30N 50°48' W 001°07'1 2.3
2017-Aug-20 07:00N 50°49' W 001°06'0 0.0
2017-Aug-20 06:30N 50°49' W 001°06'0 0.0
2017-Aug-20 06:00N 50°49' W 001°06'1 1.8
2017-Aug-20 05:30N 50°48' W 001°07'713.8
2017-Aug-20 05:00N 50°43' W 000°60'714.5
2017-Aug-20 04:31N 50°36' W 000°57'612.7
2017-Aug-20 04:01N 50°30' W 000°53'510.7
2017-Aug-20 03:30N 50°25' W 000°50'4911.5
2017-Aug-19 23:16N 49°40' W 000°24'311.7
2017-Aug-19 22:59N 49°36' W 000°22'611.1
2017-Aug-19 22:26N 49°31' W 000°19'410.5
2017-Aug-19 22:01N 49°26' W 000°17'510.5
2017-Aug-19 21:30N 49°21' W 000°15'4 7.9
2017-Aug-19 21:00N 49°17' W 000°15'0 0.0
2017-Aug-19 20:30N 49°17' W 000°15'0 0.0
2017-Aug-19 20:00N 49°17' W 000°15'0 0.0
2017-Aug-19 19:30N 49°17' W 000°15'2 4.6
2017-Aug-19 19:00N 49°20' W 000°14'1019.9
2017-Aug-19 18:30N 49°29' W 000°19'5520.3
2017-Aug-19 15:46N 50°21' W 000°49'519.2
2017-Aug-19 15:30N 50°26' W 000°52'1019.6
2017-Aug-19 15:00N 50°35' W 000°57'1514.6
2017-Aug-19 14:00N 50°49' W 001°06'0 0.2
2017-Aug-19 13:30N 50°49' W 001°06'0 0.0
2017-Aug-19 13:00N 50°49' W 001°06'0 0.0
2017-Aug-19 12:31N 50°49' W 001°06'0 0.2
2017-Aug-19 12:00N 50°49' W 001°06'611.8
2017-Aug-19 11:31N 50°43' W 001°03'1019.2
2017-Aug-19 11:00N 50°35' W 000°56'1020.5
2017-Aug-19 10:31N 50°25' W 000°50'4220.1
2017-Aug-19 08:24N 49°46' W 000°26'718.2
2017-Aug-19 08:00N 49°39' W 000°23'1017.9
2017-Aug-19 07:25N 49°29' W 000°18'718.1
2017-Aug-19 07:01N 49°22' W 000°15'4 8.5
2017-Aug-19 06:30N 49°17' W 000°15'0 0.0
2017-Aug-19 06:00N 49°17' W 000°15'0 0.0
2017-Aug-19 05:30N 49°17' W 000°15'0 0.0
2017-Aug-19 05:00N 49°17' W 000°15'0 0.3
2017-Aug-19 04:30N 49°17' W 000°15'1215.9
2017-Aug-19 03:46N 49°29' W 000°16'415.7
2017-Aug-19 03:30N 49°33' W 000°19'5314.8
2017-Aug-18 23:54N 50°22' W 000°50'615.1
2017-Aug-18 23:30N 50°28' W 000°53'714.7
2017-Aug-18 23:01N 50°35' W 000°56'815.8
2017-Aug-18 22:30N 50°42' W 001°01'815.0
2017-Aug-18 22:00N 50°48' W 001°07'1 1.4
2017-Aug-18 21:30N 50°49' W 001°06'0 0.0
2017-Aug-18 21:00N 50°49' W 001°06'0 0.0
2017-Aug-18 20:30N 50°49' W 001°06'0 0.2
2017-Aug-18 20:00N 50°49' W 001°06'612.4
2017-Aug-18 19:31N 50°43' W 001°02'917.9
2017-Aug-18 19:00N 50°35' W 000°56'918.4
2017-Aug-18 18:30N 50°27' W 000°48'4119.1
2017-Aug-18 16:22N 49°48' W 000°29'919.0
2017-Aug-18 15:54N 49°40' W 000°25'819.1
2017-Aug-18 15:29N 49°32' W 000°20'919.0
2017-Aug-18 15:00N 49°24' W 000°16'612.8
2017-Aug-18 14:30N 49°17' W 000°15'0 0.0
2017-Aug-18 13:30N 49°17' W 000°15'0 0.0
2017-Aug-18 13:00N 49°17' W 000°15'2 3.9
2017-Aug-18 12:29N 49°19' W 000°14'816.5
2017-Aug-18 12:00N 49°27' W 000°16'1019.7
2017-Aug-18 11:30N 49°36' W 000°22'4620.0
2017-Aug-18 09:10N 50°20' W 000°48'420.5
2017-Aug-18 08:59N 50°24' W 000°50'1020.2
2017-Aug-18 08:31N 50°33' W 000°55'1019.7
2017-Aug-18 08:01N 50°42' W 001°01'714.9
2017-Aug-18 07:30N 50°48' W 001°07'1 1.8
2017-Aug-18 07:00N 50°49' W 001°06'0 0.0
2017-Aug-18 06:30N 50°49' W 001°06'0 0.0
2017-Aug-18 06:00N 50°49' W 001°06'0 0.1
2017-Aug-18 05:30N 50°49' W 001°06'510.5
2017-Aug-18 05:01N 50°44' W 001°03'917.0
2017-Aug-18 04:30N 50°37' W 000°55'510.6
2017-Aug-18 04:00N 50°32' W 000°53'510.5
2017-Aug-18 03:30N 50°27' W 000°51'610.9
2017-Aug-18 03:00N 50°21' W 000°48'4211.3
2017-Aug-17 23:18N 49°42' W 000°26'311.8
2017-Aug-17 23:00N 49°39' W 000°24'711.4
2017-Aug-17 22:22N 49°32' W 000°20'411.4
2017-Aug-17 22:00N 49°28' W 000°18'511.0
2017-Aug-17 21:30N 49°23' W 000°16'611.1
2017-Aug-17 21:00N 49°18' W 000°15'0 0.5
2017-Aug-17 20:29N 49°17' W 000°15'0 0.0
2017-Aug-17 19:59N 49°17' W 000°15'0 0.0
2017-Aug-17 19:29N 49°17' W 000°15'2 3.5
2017-Aug-17 19:00N 49°19' W 000°15'1019.8
2017-Aug-17 18:29N 49°29' W 000°18'2719.0
2017-Aug-17 17:04N 49°54' W 000°33'118.9
2017-Aug-17 17:00N 49°55' W 000°34'1518.7
2017-Aug-17 16:12N 50°09' W 000°41'818.6
2017-Aug-17 15:48N 50°17' W 000°46'618.7
2017-Aug-17 15:28N 50°22' W 000°49'818.6
2017-Aug-17 15:01N 50°30' W 000°53'918.9
2017-Aug-17 14:30N 50°39' W 000°58'917.0
2017-Aug-17 14:00N 50°46' W 001°06'2 4.4
2017-Aug-17 13:28N 50°49' W 001°06'0 0.0
2017-Aug-17 12:58N 50°49' W 001°06'0 0.0
2017-Aug-17 12:28N 50°49' W 001°06'0 0.2
2017-Aug-17 12:00N 50°49' W 001°06'510.5
2017-Aug-17 11:30N 50°44' W 001°03'917.2
2017-Aug-17 11:00N 50°36' W 000°57'1020.2
2017-Aug-17 10:30N 50°27' W 000°51'3620.0
2017-Aug-17 08:42N 49°53' W 000°31'519.2
2017-Aug-17 08:26N 49°48' W 000°28'819.4
2017-Aug-17 08:00N 49°40' W 000°23'1119.2
2017-Aug-17 07:27N 49°30' W 000°19'819.0
2017-Aug-17 07:00N 49°22' W 000°15'5 9.0
2017-Aug-17 06:29N 49°17' W 000°15'0 0.0
2017-Aug-17 05:59N 49°17' W 000°15'0 0.0
2017-Aug-17 05:29N 49°17' W 000°15'0 0.0
2017-Aug-17 04:59N 49°17' W 000°15'0 0.2
2017-Aug-17 04:31N 49°17' W 000°15'714.7
2017-Aug-17 04:00N 49°25' W 000°16'3412.3
2017-Aug-17 01:15N 49°56' W 000°35'411.9
2017-Aug-17 00:53N 50°00' W 000°38'1411.7
2017-Aug-16 23:40N 50°13' W 000°46'714.5
2017-Aug-16 23:11N 50°20' W 000°50'315.8
2017-Aug-16 23:00N 50°22' W 000°52'815.8
2017-Aug-16 22:30N 50°30' W 000°54'815.6
2017-Aug-16 22:00N 50°38' W 000°58'917.1
2017-Aug-16 21:30N 50°45' W 001°05'4 7.8
2017-Aug-16 21:00N 50°49' W 001°06'0 0.0
2017-Aug-16 20:30N 50°49' W 001°06'0 0.0
2017-Aug-16 20:00N 50°49' W 001°06'0 0.0
2017-Aug-16 19:30N 50°49' W 001°06'0 0.0
2017-Aug-16 19:01N 50°49' W 001°06'0 0.0
2017-Aug-16 18:31N 50°49' W 001°06'0 0.0
2017-Aug-16 18:00N 50°49' W 001°06'2 5.0
2017-Aug-16 17:31N 50°46' W 001°06'918.7
2017-Aug-16 17:00N 50°38' W 000°59'918.2
2017-Aug-16 16:30N 50°29' W 000°54'917.9
2017-Aug-16 16:00N 50°21' W 000°49'917.8
2017-Aug-16 15:30N 50°13' W 000°44'917.9
2017-Aug-16 15:00N 50°04' W 000°39'917.8
2017-Aug-16 14:30N 49°56' W 000°34'917.8
2017-Aug-16 14:00N 49°48' W 000°29'917.7
2017-Aug-16 13:30N 49°39' W 000°24'917.7
2017-Aug-16 13:00N 49°31' W 000°19'917.7
2017-Aug-16 12:30N 49°23' W 000°15'510.6
2017-Aug-16 12:00N 49°17' W 000°15'0 0.0
2017-Aug-16 11:30N 49°17' W 000°15'0 0.0
2017-Aug-16 11:00N 49°17' W 000°15'0 0.0
2017-Aug-16 10:30N 49°17' W 000°15'0 0.0
2017-Aug-16 10:01N 49°17' W 000°15'0 0.0
2017-Aug-16 09:31N 49°17' W 000°15'0 0.0
2017-Aug-16 09:01N 49°17' W 000°15'0 0.0
2017-Aug-16 08:30N 49°17' W 000°15'0 0.0
2017-Aug-16 08:01N 49°17' W 000°15'0 0.0
2017-Aug-16 07:30N 49°17' W 000°15'0 0.0
2017-Aug-16 07:01N 49°17' W 000°15'0 0.0
2017-Aug-16 06:30N 49°17' W 000°15'0 0.0
2017-Aug-16 06:00N 49°17' W 000°15'0 0.0
2017-Aug-16 05:31N 49°17' W 000°15'2 4.8
2017-Aug-16 05:00N 49°20' W 000°14'713.7
2017-Aug-16 04:30N 49°26' W 000°17'611.8
2017-Aug-16 03:59N 49°32' W 000°20'611.8
2017-Aug-16 03:29N 49°38' W 000°24'1712.5
2017-Aug-16 02:06N 49°53' W 000°35'115.3
2017-Aug-16 02:01N 49°55' W 000°36'815.2
2017-Aug-16 01:31N 50°02' W 000°41'815.3
2017-Aug-16 01:00N 50°09' W 000°46'714.7
2017-Aug-16 00:31N 50°15' W 000°49'714.4
2017-Aug-16 00:00N 50°23' W 000°51'714.7
2017-Aug-15 23:30N 50°30' W 000°55'714.4
2017-Aug-15 23:00N 50°37' W 000°57'714.1
2017-Aug-15 22:30N 50°43' W 001°01'612.4
2017-Aug-15 22:01N 50°48' W 001°07'1 1.7
2017-Aug-15 21:31N 50°49' W 001°06'0 0.0
2017-Aug-15 21:01N 50°49' W 001°06'0 0.0
2017-Aug-15 20:30N 50°49' W 001°06'0 0.7
2017-Aug-15 20:01N 50°49' W 001°06'510.1
2017-Aug-15 19:30N 50°44' W 001°03'918.1
2017-Aug-15 19:00N 50°35' W 000°58'918.9
2017-Aug-15 18:30N 50°26' W 000°54'918.4
2017-Aug-15 18:00N 50°18' W 000°49'918.8
2017-Aug-15 17:30N 50°09' W 000°43'918.9
2017-Aug-15 17:00N 50°00' W 000°38'2119.0
2017-Aug-15 15:54N 49°41' W 000°26'818.9
2017-Aug-15 15:30N 49°34' W 000°22'918.6
2017-Aug-15 15:00N 49°25' W 000°16'815.5
2017-Aug-15 14:30N 49°18' W 000°15'0 0.6
2017-Aug-15 14:00N 49°17' W 000°15'0 0.0
2017-Aug-15 13:30N 49°17' W 000°15'0 0.0
2017-Aug-15 13:00N 49°17' W 000°15'0 0.3
2017-Aug-15 12:30N 49°17' W 000°15'917.1
2017-Aug-15 12:00N 49°26' W 000°19'1018.8
2017-Aug-15 11:28N 49°34' W 000°27'2718.9
2017-Aug-15 10:03N 49°59' W 000°43'419.0
2017-Aug-15 09:49N 50°03' W 000°45'1119.1
2017-Aug-15 09:13N 50°14' W 000°51'419.2
2017-Aug-15 09:00N 50°18' W 000°53'1020.5
2017-Aug-15 08:30N 50°28' W 000°56'1021.0
2017-Aug-15 08:01N 50°38' W 000°59'918.1
2017-Aug-15 07:30N 50°46' W 001°06'2 4.9
2017-Aug-15 07:00N 50°49' W 001°06'0 0.0
2017-Aug-15 06:30N 50°49' W 001°06'0 0.0
2017-Aug-15 06:00N 50°49' W 001°06'0 0.1
2017-Aug-15 05:30N 50°49' W 001°06'3 6.6
2017-Aug-15 05:01N 50°45' W 001°05'714.7
2017-Aug-15 04:31N 50°39' W 000°58'714.5
2017-Aug-15 04:01N 50°33' W 000°55'714.6
2017-Aug-15 03:31N 50°26' W 000°50'714.4
2017-Aug-15 03:01N 50°19' W 000°45'815.3
2017-Aug-15 02:29N 50°12' W 000°41'815.6
2017-Aug-15 02:00N 50°05' W 000°38'612.5
2017-Aug-15 01:30N 49°59' W 000°34'510.8
2017-Aug-15 01:00N 49°54' W 000°32'510.7
2017-Aug-15 00:30N 49°49' W 000°29'510.7
2017-Aug-15 00:00N 49°44' W 000°27'611.0
2017-Aug-14 23:30N 49°38' W 000°25'610.9
2017-Aug-14 22:59N 49°33' W 000°22'511.2
2017-Aug-14 22:30N 49°28' W 000°19'611.3
2017-Aug-14 22:00N 49°23' W 000°16'510.2
2017-Aug-14 21:30N 49°18' W 000°15'0 0.5
2017-Aug-14 21:00N 49°17' W 000°15'0 0.0
2017-Aug-14 20:30N 49°17' W 000°15'0 0.0
2017-Aug-14 20:00N 49°17' W 000°15'0 0.0
2017-Aug-14 19:30N 49°17' W 000°15'3 6.2
2017-Aug-14 18:59N 49°21' W 000°15'1018.4
2017-Aug-14 18:28N 49°30' W 000°19'918.4
2017-Aug-14 18:00N 49°38' W 000°21'918.5
2017-Aug-14 17:30N 49°47' W 000°24'918.4
2017-Aug-14 17:01N 49°56' W 000°29'918.4
2017-Aug-14 16:30N 50°04' W 000°34'1019.0
2017-Aug-14 16:00N 50°13' W 000°40'1020.5
2017-Aug-14 15:30N 50°22' W 000°48'1020.7
2017-Aug-14 15:00N 50°31' W 000°55'1019.7
2017-Aug-14 14:30N 50°40' W 000°60'816.6
2017-Aug-14 14:00N 50°48' W 001°07'1 2.4
2017-Aug-14 13:30N 50°49' W 001°06'0 0.0
2017-Aug-14 13:00N 50°49' W 001°06'0 0.0
2017-Aug-14 12:30N 50°49' W 001°06'0 0.3
2017-Aug-14 12:00N 50°49' W 001°06'4 8.7
2017-Aug-14 11:30N 50°44' W 001°04'816.3
2017-Aug-14 11:00N 50°37' W 000°58'918.2
2017-Aug-14 10:30N 50°28' W 000°55'919.0
2017-Aug-14 10:01N 50°19' W 000°52'1019.3
2017-Aug-14 09:30N 50°10' W 000°48'1019.5
2017-Aug-14 09:00N 50°01' W 000°43'1220.5
2017-Aug-14 08:25N 49°49' W 000°36'921.6
2017-Aug-14 07:59N 49°41' W 000°30'1221.4
2017-Aug-14 07:26N 49°30' W 000°22'921.5
2017-Aug-14 07:00N 49°22' W 000°16'  

Dump ship's entire track history